Fort Benton (79S)
Fort Benton, MT
Field Elevation: 2869
Lat: 47°50.42N  Long: 110°38.11W
CTAF/Unicom Freq: 122.8000
   
     For Weather-by-Phone, call 406-622-5976
Weather Advisories
7/1/2015   01:50 Z
Altimeter 29.94" Hg
Wind 340° @ 11 KT
Gusts 15 KT
Visibility 10 SM
Temperature 29° C (84° F)
Dewpoint 12° C (54° F)
Relative Humidity 33%
Density Altitude 5,100 feet
Condensation Altitude 11,800 feet
Heat Index: 28° C (82° F)
Wind and Runways
Indicated Runway = 32
Headwind = 10 kt
Crosswind = 4 kt
History
 
 
 
More Info
All DigiWx sites map
NOAA Forecast
 
Airport IQ 5010
(6S5) Ravalli County
(S71) Edgar Obie
 
about DigiWx
 
FAA Disclaimer: The data displayed is for advisory purposes only and is not to be used for flight planning or operations. For official data, please call 406-622-5976 to hear the current automated AWOS voice message.
  METAR 79S 010150Z AUTO 34011G15KT VIS 10 SM 29/12 A2994